AirNav   Air Wisconsin pilot careers
 
 900 users online  

S68 Orofino Municipal Airport
Orofino, Idaho, USA

GOING TO OROFINO?


FAA INFORMATION EFFECTIVE 26 APRIL 2018

Location

FAA Identifier: S68
Lat/Long: 46-29-28.6490N / 116-16-36.5020W
46-29.477483N / 116-16.608367W
46.4912914 / -116.2768061
(estimated)
Elevation: 1005 ft. / 306 m (estimated)
Variation: 18E (1985)
From city: 1 mile NW of OROFINO, ID
Time zone: UTC -7 (UTC -8 during Standard Time)
Zip code: 83544

Airport Operations

Airport use: Open to the public
Activation date: 04/1940
Control tower: no
ARTCC: SEATTLE CENTER
FSS: BOISE FLIGHT SERVICE STATION
NOTAMs facility: BOI (NOTAM-D service available)
Attendance: UNATNDD
Wind indicator: lighted
Segmented circle: no
Lights: ACTVT RY 09/27 MIRL - CTAF.

Airport Communications

CTAF/UNICOM: 122.8

Nearby radio navigation aids

VOR radial/distance  VOR name  Freq  Var
MQGr055/25.4NEZ PERCE VOR/DME108.2020E

Airport Services

Fuel available: 100LL
Parking: tiedowns
Airframe service: NONE
Powerplant service: NONE
Bottled oxygen: NONE
Bulk oxygen: NONE

Runway Information

Runway 9/27

Dimensions: 2500 x 60 ft. / 762 x 18 m
Surface: asphalt, in good condition
Weight bearing capacity: 
Single wheel: 17.0
Runway edge lights: medium intensity
RUNWAY 9  RUNWAY 27
Gradient: 0.1%0.1%
Traffic pattern: rightleft
Markings: basic, in good conditionbasic, in good condition
Obstructions: 60 ft. tree, 240 ft. from runway, 100 ft. right of centerline
RWY 09 +50' TREE AT 30', 80' LEFT OF CENTERLINE
50 ft. tree, 200 ft. from runway, 100 ft. right of centerline
+13 FT ROAD AT 0 FT 110 FT R OF CNTRLN.

Airport Ownership and Management from official FAA records

Ownership: Publicly-owned
Owner: CITY OF OROFINO
PO BOX 312
OROFINO, ID 83544
Phone 208-476-4725
Manager: RICK LAAM
AIRPORT RD. NO 1
OROFINO, ID 83544
Phone 208-476-4725

Airport Operational Statistics

Aircraft based on the field: 12
Single engine airplanes: 12
    
Aircraft operations: avg 79/week *
73% transient general aviation
27% local general aviation
* for 12-month period ending 28 September 2015

Additional Remarks

HIGH TERRAIN IN ALL QUADS AROUND ARPT.
TWO 1968 FT MSL (250 FT AGL) RADIO TWRS LOCATED APPROXIMATELY 1 MILE E OF RY 27 300 FT LEFT.
BE ALERT DURING NIGHT OPS DUE TO TERRAIN.

Instrument Procedures

There are no published instrument procedures at S68.

Some nearby airports with instrument procedures:

KLWS - Lewiston-Nez Perce County Airport (31 nm W)
KGIC - Idaho County Airport (34 nm S)
KPUW - Pullman/Moscow Regional Airport (38 nm NW)
KCOE - Coeur d'Alene Airport - Pappy Boyington Field (80 nm N)
KSFF - Felts Field Airport (83 nm NW)
 
Loc | Ops | Rwys | IFR | FBO | Links
Com | Nav | Svcs | Stats | Notes

AirNav Hotels Sweepstakes
 
Area around S68 (Orofino Municipal Airport)
 
Road maps at: MapQuest Bing Google
 
Aerial photo
WARNING: Photo may not be current or correct
Aerial photo of S68 (Orofino Municipal Airport)
Photo by Lyle Hendricks
Photo taken 09-May-2010
looking northeast.

Do you have a better or more recent aerial photo of Orofino Municipal Airport that you would like to share? If so, please send us your photo.

 
Sectional chart

 
Airport distance calculator
Flying to Orofino Municipal Airport? Find the distance to fly.

From to S68

Sunrise and sunset
Times for 20-May-2018
 Local
(UTC-7)
 Zulu
(UTC)
Morning civil twilight04:3011:30
Sunrise05:0712:07
Sunset20:1703:17
Evening civil twilight20:5303:53

Current date and time
Zulu (UTC)  21-May-2018 01:48:12
Local (UTC-7)  20-May-2018 18:48:12
 
METAR
KLWS 
31nm W 
210056Z 27005KT 10SM FEW075 BKN095 BKN120 22/14 A2985 RMK AO2 LTG DSNT NE SLP102 T02220139 $
KGIC 
34nm S 
210135Z AUTO 04003KT 10SM OVC080 15/12 A2990 RMK AO1 P0001
KP69 
35nm SE 
210052Z AUTO 35003KT 18/14 A2985 RMK AO1 SLP103 T01780144 $
KPUW 
38nm NW 
210053Z AUTO 29009KT 10SM SCT036 20/12 A2990 RMK AO2 LTG DSNT N-SE SLP120 T02000122
TAF
KLWS 
31nm W 
201740Z 2018/2118 31007KT P6SM -SHRA SCT060 BKN100 BKN120 TEMPO 2020/2024 TSRA BKN080 OVC100CB FM210300 24005KT P6SM SCT060 BKN080 OVC100 FM210800 16003KT P6SM -SHRA BKN050 OVC080 FM211500 VRB02KT P6SM BKN070 OVC100
KPUW 
38nm NW 
201740Z 2018/2118 30007KT P6SM -SHRA SCT050 BKN100 BKN120 TEMPO 2020/2024 TSRA BKN080 OVC100CB FM210300 27006KT P6SM SCT050 BKN080 OVC100 FM211000 VRB03KT P6SM SCT030 BKN080 BKN120
NOTAMs
Click for the latest NOTAMs
NOTAMs are issued by the DoD/FAA and will open in a separate window not controlled by AirNav.

 

 
 

FBO, Fuel Providers, and Aircraft Ground Support

  
 Business Name 
 
 Contact 
 
 Services / Description 
 
Fuel Prices
 
Comments
  
City of Orofino 208-476-4725
no information available

If you are affiliated with City of Orofino and would like to show here your services, contact info, web link, logo, and more, click here
100LL
FS $4.25 
 Updated 14-May-2018
 
   2 read write
FS=Full service
Update Fuel Prices
 

Where to Stay: Hotels, Motels, Resorts, B&Bs, Campgrounds

 The hotels featured here are reported to be very convenient to the Orofino Municipal Airport. If your hotel/inn/B&B/resort is near the Orofino Municipal Airport, provides convenient transportation, or is otherwise attractive to pilots, flight crews, and airport users, consider listing it here.
  
 Business Name 
 
 Contact 
 
 Services / Description 
 
Distance
 
Comments
  
Clearwater Cabin Rental 208-476-7740
[web site]
[email]
Lodging

More info about Clearwater Cabin Rental
5 miles  
   write
Feature A Hotel
 

Would you like to see your business listed on this page?

 If your business provides an interesting product or service to pilots, flight crews, aircraft, or users of the Orofino Municipal Airport, you should consider listing it here.  To start the listing process, click on the button below
 
Add a business
 

Other Pages about Orofino Municipal Airport

Update a link
 
Copyright © AirNav, LLC. All rights reserved. Privacy Policy  Contact